sensor_id;sensor_type;location;lat;lon;timestamp;pressure;altitude;pressure_sealevel;temperature;humidity
4586;BME280;2305;50.118;8.952;2023-04-04T00:00:05;101782.25;;;3.10;100.00
4586;BME280;2305;50.118;8.952;2023-04-04T00:02:33;101779.53;;;3.15;100.00
4586;BME280;2305;50.118;8.952;2023-04-04T00:05:03;101770.91;;;3.13;100.00
4586;BME280;2305;50.118;8.952;2023-04-04T00:07:32;101765.88;;;3.07;100.00
4586;BME280;2305;50.118;8.952;2023-04-04T00:10:00;101768.47;;;3.07;100.00
4586;BME280;2305;50.118;8.952;2023-04-04T00:12:29;101767.63;;;3.05;100.00
4586;BME280;2305;50.118;8.952;2023-04-04T00:14:57;101771.91;;;3.07;100.00
4586;BME280;2305;50.118;8.952;2023-04-04T00:17:25;101770.16;;;3.09;100.00
4586;BME280;2305;50.118;8.952;2023-04-04T00:19:53;101762.56;;;3.00;100.00
4586;BME280;2305;50.118;8.952;2023-04-04T00:22:25;101755.66;;;2.99;100.00
4586;BME280;2305;50.118;8.952;2023-04-04T00:24:52;101759.13;;;3.00;100.00
4586;BME280;2305;50.118;8.952;2023-04-04T00:27:20;101756.59;;;2.97;100.00
4586;BME280;2305;50.118;8.952;2023-04-04T00:29:49;101759.16;;;2.98;100.00
4586;BME280;2305;50.118;8.952;2023-04-04T00:32:17;101756.69;;;2.94;100.00
4586;BME280;2305;50.118;8.952;2023-04-04T00:34:51;101755.03;;;2.91;100.00
4586;BME280;2305;50.118;8.952;2023-04-04T00:37:21;101750.72;;;2.90;100.00
4586;BME280;2305;50.118;8.952;2023-04-04T00:39:53;101750.84;;;2.86;100.00
4586;BME280;2305;50.118;8.952;2023-04-04T00:42:21;101749.97;;;2.85;100.00
4586;BME280;2305;50.118;8.952;2023-04-04T00:44:52;101750.69;;;2.92;100.00
4586;BME280;2305;50.118;8.952;2023-04-04T00:47:21;101750.72;;;2.90;100.00
4586;BME280;2305;50.118;8.952;2023-04-04T00:49:49;101745.66;;;2.86;100.00
4586;BME280;2305;50.118;8.952;2023-04-04T00:52:18;101747.38;;;2.85;100.00
4586;BME280;2305;50.118;8.952;2023-04-04T00:54:46;101742.16;;;2.85;100.00
4586;BME280;2305;50.118;8.952;2023-04-04T00:57:16;101742.19;;;2.84;100.00
4586;BME280;2305;50.118;8.952;2023-04-04T00:59:45;101737.91;;;2.83;100.00
4586;BME280;2305;50.118;8.952;2023-04-04T01:02:14;101737.09;;;2.81;100.00
4586;BME280;2305;50.118;8.952;2023-04-04T01:04:44;101735.47;;;2.77;100.00
4586;BME280;2305;50.118;8.952;2023-04-04T01:07:14;101733.72;;;2.77;100.00
4586;BME280;2305;50.118;8.952;2023-04-04T01:09:43;101730.25;;;2.77;100.00
4586;BME280;2305;50.118;8.952;2023-04-04T01:12:12;101732.06;;;2.75;100.00
4586;BME280;2305;50.118;8.952;2023-04-04T01:14:42;101729.41;;;2.76;100.00
4586;BME280;2305;50.118;8.952;2023-04-04T01:17:11;101725.91;;;2.77;100.00
4586;BME280;2305;50.118;8.952;2023-04-04T01:19:44;101732.09;;;2.73;100.00
4586;BME280;2305;50.118;8.952;2023-04-04T01:22:18;101723.41;;;2.74;100.00
4586;BME280;2305;50.118;8.952;2023-04-04T01:24:48;101725.94;;;2.76;100.00
4586;BME280;2305;50.118;8.952;2023-04-04T01:27:18;101721.69;;;2.73;100.00
4586;BME280;2305;50.118;8.952;2023-04-04T01:29:53;101726.03;;;2.73;100.00
4586;BME280;2305;50.118;8.952;2023-04-04T01:32:27;101724.28;;;2.73;100.00
4586;BME280;2305;50.118;8.952;2023-04-04T01:35:03;101722.56;;;2.72;100.00
4586;BME280;2305;50.118;8.952;2023-04-04T01:37:40;101722.69;;;2.69;100.00
4586;BME280;2305;50.118;8.952;2023-04-04T01:40:16;101729.47;;;2.73;100.00
4586;BME280;2305;50.118;8.952;2023-04-04T01:42:50;101722.66;;;2.71;100.00
4586;BME280;2305;50.118;8.952;2023-04-04T01:45:20;101725.28;;;2.69;100.00
4586;BME280;2305;50.118;8.952;2023-04-04T01:47:53;101720.09;;;2.68;100.00
4586;BME280;2305;50.118;8.952;2023-04-04T01:50:23;101725.28;;;2.69;100.00
4586;BME280;2305;50.118;8.952;2023-04-04T01:52:51;101716.56;;;2.70;100.00
4586;BME280;2305;50.118;8.952;2023-04-04T01:55:19;101717.50;;;2.68;100.00
4586;BME280;2305;50.118;8.952;2023-04-04T01:57:49;101718.44;;;2.65;100.00
4586;BME280;2305;50.118;8.952;2023-04-04T02:00:20;101716.72;;;2.64;100.00
4586;BME280;2305;50.118;8.952;2023-04-04T02:02:48;101722.88;;;2.62;100.00
4586;BME280;2305;50.118;8.952;2023-04-04T02:05:19;101726.34;;;2.62;100.00
4586;BME280;2305;50.118;8.952;2023-04-04T02:07:48;101726.47;;;2.58;100.00
4586;BME280;2305;50.118;8.952;2023-04-04T02:10:29;101730.75;;;2.59;100.00
4586;BME280;2305;50.118;8.952;2023-04-04T02:13:02;101732.50;;;2.58;100.00
4586;BME280;2305;50.118;8.952;2023-04-04T02:15:30;101730.94;;;2.53;100.00
4586;BME280;2305;50.118;8.952;2023-04-04T02:17:59;101723.16;;;2.51;100.00
4586;BME280;2305;50.118;8.952;2023-04-04T02:20:28;101727.44;;;2.54;100.00
4586;BME280;2305;50.118;8.952;2023-04-04T02:22:58;101726.66;;;2.50;100.00
4586;BME280;2305;50.118;8.952;2023-04-04T02:25:27;101727.50;;;2.52;100.00
4586;BME280;2305;50.118;8.952;2023-04-04T02:27:55;101728.28;;;2.54;100.00
4586;BME280;2305;50.118;8.952;2023-04-04T02:30:24;101720.47;;;2.56;100.00
4586;BME280;2305;50.118;8.952;2023-04-04T02:32:56;101725.69;;;2.54;100.00
4586;BME280;2305;50.118;8.952;2023-04-04T02:35:28;101721.38;;;2.53;100.00
4586;BME280;2305;50.118;8.952;2023-04-04T02:37:58;101720.56;;;2.51;100.00
4586;BME280;2305;50.118;8.952;2023-04-04T02:40:40;101722.47;;;2.45;100.00
4586;BME280;2305;50.118;8.952;2023-04-04T02:43:09;101720.91;;;2.38;100.00
4586;BME280;2305;50.118;8.952;2023-04-04T02:45:39;101714.03;;;2.37;100.00
4586;BME280;2305;50.118;8.952;2023-04-04T02:48:19;101719.13;;;2.40;100.00
4586;BME280;2305;50.118;8.952;2023-04-04T02:50:50;101712.25;;;2.37;100.00
4586;BME280;2305;50.118;8.952;2023-04-04T02:53:18;101708.06;;;2.32;100.00
4586;BME280;2305;50.118;8.952;2023-04-04T02:55:49;101707.19;;;2.33;100.00
4586;BME280;2305;50.118;8.952;2023-04-04T02:58:17;101705.47;;;2.32;100.00
4586;BME280;2305;50.118;8.952;2023-04-04T03:00:52;101704.63;;;2.31;100.00
4586;BME280;2305;50.118;8.952;2023-04-04T03:03:24;101704.63;;;2.31;100.00
4586;BME280;2305;50.118;8.952;2023-04-04T03:05:53;101700.41;;;2.27;100.00
4586;BME280;2305;50.118;8.952;2023-04-04T03:08:21;101702.22;;;2.24;100.00
4586;BME280;2305;50.118;8.952;2023-04-04T03:10:49;101696.94;;;2.27;100.00
4586;BME280;2305;50.118;8.952;2023-04-04T03:13:17;101689.19;;;2.25;100.00
4586;BME280;2305;50.118;8.952;2023-04-04T03:15:45;101695.47;;;2.17;100.00
4586;BME280;2305;50.118;8.952;2023-04-04T03:18:18;101689.41;;;2.16;100.00
4586;BME280;2305;50.118;8.952;2023-04-04T03:20:46;101685.97;;;2.16;100.00
4586;BME280;2305;50.118;8.952;2023-04-04T03:23:15;101687.78;;;2.12;100.00
4586;BME280;2305;50.118;8.952;2023-04-04T03:25:43;101693.06;;;2.09;100.00
4586;BME280;2305;50.118;8.952;2023-04-04T03:28:12;101681.88;;;2.06;100.00
4586;BME280;2305;50.118;8.952;2023-04-04T03:30:43;101679.28;;;2.06;100.00
4586;BME280;2305;50.118;8.952;2023-04-04T03:33:37;101675.06;;;2.02;100.00
4586;BME280;2305;50.118;8.952;2023-04-04T03:36:09;101680.28;;;2.00;100.00
4586;BME280;2305;50.118;8.952;2023-04-04T03:38:38;101676.91;;;1.97;100.00
4586;BME280;2305;50.118;8.952;2023-04-04T03:41:10;101676.84;;;2.00;100.00
4586;BME280;2305;50.118;8.952;2023-04-04T03:43:39;101674.34;;;1.95;100.00
4586;BME280;2305;50.118;8.952;2023-04-04T03:46:07;101672.72;;;1.93;100.00
4586;BME280;2305;50.118;8.952;2023-04-04T03:48:35;101665.84;;;1.90;100.00
4586;BME280;2305;50.118;8.952;2023-04-04T03:51:08;101674.41;;;1.94;100.00
4586;BME280;2305;50.118;8.952;2023-04-04T03:53:37;101670.03;;;1.94;100.00
4586;BME280;2305;50.118;8.952;2023-04-04T03:56:05;101670.94;;;1.93;100.00
4586;BME280;2305;50.118;8.952;2023-04-04T03:58:34;101669.22;;;1.94;100.00
4586;BME280;2305;50.118;8.952;2023-04-04T04:01:03;101671.84;;;1.92;100.00
4586;BME280;2305;50.118;8.952;2023-04-04T04:03:31;101671.06;;;1.89;100.00
4586;BME280;2305;50.118;8.952;2023-04-04T04:06:03;101657.38;;;1.82;100.00
4586;BME280;2305;50.118;8.952;2023-04-04T04:08:33;101665.94;;;1.86;100.00
4586;BME280;2305;50.118;8.952;2023-04-04T04:11:04;101664.28;;;1.83;100.00
4586;BME280;2305;50.118;8.952;2023-04-04T04:13:33;101671.19;;;1.84;100.00
4586;BME280;2305;50.118;8.952;2023-04-04T04:16:02;101660.94;;;1.78;100.00
4586;BME280;2305;50.118;8.952;2023-04-04T04:18:30;101666.22;;;1.75;100.00
4586;BME280;2305;50.118;8.952;2023-04-04T04:20:59;101662.78;;;1.73;100.00
4586;BME280;2305;50.118;8.952;2023-04-04T04:23:35;101660.28;;;1.70;100.00
4586;BME280;2305;50.118;8.952;2023-04-04T04:26:03;101668.06;;;1.70;100.00
4586;BME280;2305;50.118;8.952;2023-04-04T04:28:32;101663.75;;;1.69;100.00
4586;BME280;2305;50.118;8.952;2023-04-04T04:31:10;101663.78;;;1.68;100.00
4586;BME280;2305;50.118;8.952;2023-04-04T04:33:42;101660.41;;;1.64;100.00
4586;BME280;2305;50.118;8.952;2023-04-04T04:36:12;101661.41;;;1.59;100.00
4586;BME280;2305;50.118;8.952;2023-04-04T04:38:53;101665.63;;;1.63;100.00
4586;BME280;2305;50.118;8.952;2023-04-04T04:41:21;101663.00;;;1.64;100.00
4586;BME280;2305;50.118;8.952;2023-04-04T04:43:51;101656.09;;;1.63;100.00
4586;BME280;2305;50.118;8.952;2023-04-04T04:46:20;101669.91;;;1.65;100.00
4586;BME280;2305;50.118;8.952;2023-04-04T04:48:48;101664.72;;;1.65;100.00
4586;BME280;2305;50.118;8.952;2023-04-04T04:51:24;101668.16;;;1.67;100.00
4586;BME280;2305;50.118;8.952;2023-04-04T04:53:56;101667.31;;;1.65;100.00
4586;BME280;2305;50.118;8.952;2023-04-04T04:56:26;101662.06;;;1.68;100.00
4586;BME280;2305;50.118;8.952;2023-04-04T04:58:59;101668.97;;;1.68;100.00
4586;BME280;2305;50.118;8.952;2023-04-04T05:01:27;101667.31;;;1.65;100.00
4586;BME280;2305;50.118;8.952;2023-04-04T05:03:56;101673.34;;;1.67;100.00
4586;BME280;2305;50.118;8.952;2023-04-04T05:06:34;101675.03;;;1.68;100.00
4586;BME280;2305;50.118;8.952;2023-04-04T05:09:06;101682.75;;;1.71;100.00
4586;BME280;2305;50.118;8.952;2023-04-04T05:11:36;101675.75;;;1.75;100.00
4586;BME280;2305;50.118;8.952;2023-04-04T05:14:06;101677.50;;;1.74;100.00
4586;BME280;2305;50.118;8.952;2023-04-04T05:16:41;101683.69;;;1.69;100.00
4586;BME280;2305;50.118;8.952;2023-04-04T05:19:11;101680.13;;;1.73;100.00
4586;BME280;2305;50.118;8.952;2023-04-04T05:21:44;101679.09;;;1.80;100.00
4586;BME280;2305;50.118;8.952;2023-04-04T05:24:27;101678.19;;;1.81;100.00
4586;BME280;2305;50.118;8.952;2023-04-04T05:26:58;101675.50;;;1.84;100.00
4586;BME280;2305;50.118;8.952;2023-04-04T05:29:30;101678.84;;;1.89;100.00
4586;BME280;2305;50.118;8.952;2023-04-04T05:32:01;101681.34;;;1.93;100.00
4586;BME280;2305;50.118;8.952;2023-04-04T05:34:31;101688.25;;;1.94;100.00
4586;BME280;2305;50.118;8.952;2023-04-04T05:37:05;101679.41;;;2.01;100.00
4586;BME280;2305;50.118;8.952;2023-04-04T05:39:35;101680.25;;;2.03;100.00
4586;BME280;2305;50.118;8.952;2023-04-04T05:42:07;101678.34;;;2.08;100.00
4586;BME280;2305;50.118;8.952;2023-04-04T05:44:41;101678.16;;;2.16;100.00
4586;BME280;2305;50.118;8.952;2023-04-04T05:47:10;101675.44;;;2.20;100.00
4586;BME280;2305;50.118;8.952;2023-04-04T05:49:43;101678.81;;;2.24;100.00
4586;BME280;2305;50.118;8.952;2023-04-04T05:52:11;101683.91;;;2.28;100.00
4586;BME280;2305;50.118;8.952;2023-04-04T05:54:41;101685.25;;;2.43;100.00
4586;BME280;2305;50.118;8.952;2023-04-04T05:57:15;101684.25;;;2.47;100.00
4586;BME280;2305;50.118;8.952;2023-04-04T05:59:52;101676.47;;;2.47;100.00
4586;BME280;2305;50.118;8.952;2023-04-04T06:02:20;101679.84;;;2.50;100.00
4586;BME280;2305;50.118;8.952;2023-04-04T06:04:53;101679.84;;;2.50;100.00
4586;BME280;2305;50.118;8.952;2023-04-04T06:07:35;101688.28;;;2.58;100.00
4586;BME280;2305;50.118;8.952;2023-04-04T06:10:06;101689.00;;;2.63;100.00
4586;BME280;2305;50.118;8.952;2023-04-04T06:12:37;101688.72;;;2.74;100.00
4586;BME280;2305;50.118;8.952;2023-04-04T06:15:08;101686.75;;;2.82;100.00
4586;BME280;2305;50.118;8.952;2023-04-04T06:17:40;101686.78;;;2.80;100.00
4586;BME280;2305;50.118;8.952;2023-04-04T06:20:09;101689.22;;;2.86;100.00
4586;BME280;2305;50.118;8.952;2023-04-04T06:22:41;101689.81;;;2.96;100.00
4586;BME280;2305;50.118;8.952;2023-04-04T06:25:10;101688.66;;;3.06;100.00
4586;BME280;2305;50.118;8.952;2023-04-04T06:27:43;101686.69;;;3.14;100.00
4586;BME280;2305;50.118;8.952;2023-04-04T06:30:12;101689.16;;;3.18;100.00
4586;BME280;2305;50.118;8.952;2023-04-04T06:32:45;101688.16;;;3.22;100.00
4586;BME280;2305;50.118;8.952;2023-04-04T06:35:18;101688.78;;;3.30;100.00
4586;BME280;2305;50.118;8.952;2023-04-04T06:37:56;101688.84;;;3.29;100.00
4586;BME280;2305;50.118;8.952;2023-04-04T06:40:29;101695.56;;;3.36;100.00
4586;BME280;2305;50.118;8.952;2023-04-04T06:42:59;101688.03;;;3.54;100.00
4586;BME280;2305;50.118;8.952;2023-04-04T06:45:45;101690.34;;;3.63;100.00
4586;BME280;2305;50.118;8.952;2023-04-04T06:48:13;101688.53;;;3.65;100.00
4586;BME280;2305;50.118;8.952;2023-04-04T06:50:42;101688.41;;;3.70;100.00
4586;BME280;2305;50.118;8.952;2023-04-04T06:53:12;101684.75;;;3.75;100.00
4586;BME280;2305;50.118;8.952;2023-04-04T06:55:45;101691.47;;;3.82;100.00
4586;BME280;2305;50.118;8.952;2023-04-04T06:58:15;101696.50;;;3.88;99.40
4586;BME280;2305;50.118;8.952;2023-04-04T07:00:43;101691.69;;;4.02;95.68
4586;BME280;2305;50.118;8.952;2023-04-04T07:03:11;101691.63;;;4.04;95.41
4586;BME280;2305;50.118;8.952;2023-04-04T07:05:41;101688.03;;;4.08;94.97
4586;BME280;2305;50.118;8.952;2023-04-04T07:08:09;101696.53;;;4.13;95.38
4586;BME280;2305;50.118;8.952;2023-04-04T07:10:38;101691.09;;;4.18;93.78
4586;BME280;2305;50.118;8.952;2023-04-04T07:13:08;101696.94;;;4.27;91.79
4586;BME280;2305;50.118;8.952;2023-04-04T07:15:37;101693.34;;;4.29;91.80
4586;BME280;2305;50.118;8.952;2023-04-04T07:18:07;101703.50;;;4.38;95.57
4586;BME280;2305;50.118;8.952;2023-04-04T07:20:36;101709.25;;;4.47;100.00
4586;BME280;2305;50.118;8.952;2023-04-04T07:23:04;101713.28;;;4.56;98.58
4586;BME280;2305;50.118;8.952;2023-04-04T07:25:32;101712.94;;;4.65;92.96
4586;BME280;2305;50.118;8.952;2023-04-04T07:28:02;101711.78;;;4.73;90.22
4586;BME280;2305;50.118;8.952;2023-04-04T07:30:40;101709.75;;;4.81;91.54
4586;BME280;2305;50.118;8.952;2023-04-04T07:33:08;101709.47;;;4.89;90.95
4586;BME280;2305;50.118;8.952;2023-04-04T07:35:39;101704.94;;;4.94;91.43
4586;BME280;2305;50.118;8.952;2023-04-04T07:38:07;101709.84;;;5.03;88.82
4586;BME280;2305;50.118;8.952;2023-04-04T07:40:38;101707.03;;;5.07;85.59
4586;BME280;2305;50.118;8.952;2023-04-04T07:43:06;101697.34;;;5.11;86.64
4586;BME280;2305;50.118;8.952;2023-04-04T07:45:35;101699.78;;;5.15;85.42
4586;BME280;2305;50.118;8.952;2023-04-04T07:48:07;101695.16;;;5.22;84.80
4586;BME280;2305;50.118;8.952;2023-04-04T07:50:35;101699.25;;;5.29;82.36
4586;BME280;2305;50.118;8.952;2023-04-04T07:53:03;101694.75;;;5.32;83.12
4586;BME280;2305;50.118;8.952;2023-04-04T07:55:34;101695.25;;;5.42;80.65
4586;BME280;2305;50.118;8.952;2023-04-04T07:58:03;101690.88;;;5.42;78.49
4586;BME280;2305;50.118;8.952;2023-04-04T08:00:32;101695.03;;;5.48;74.65
4586;BME280;2305;50.118;8.952;2023-04-04T08:03:03;101701.66;;;5.56;73.43
4586;BME280;2305;50.118;8.952;2023-04-04T08:05:33;101694.66;;;5.57;71.10
4586;BME280;2305;50.118;8.952;2023-04-04T08:08:01;101689.09;;;5.66;68.72
4586;BME280;2305;50.118;8.952;2023-04-04T08:10:30;101688.41;;;5.61;68.83
4586;BME280;2305;50.118;8.952;2023-04-04T08:12:59;101692.53;;;5.66;68.77
4586;BME280;2305;50.118;8.952;2023-04-04T08:15:27;101680.91;;;5.73;66.90
4586;BME280;2305;50.118;8.952;2023-04-04T08:17:56;101680.81;;;5.76;64.51
4586;BME280;2305;50.118;8.952;2023-04-04T08:20:25;101682.31;;;5.83;63.41
4586;BME280;2305;50.118;8.952;2023-04-04T08:22:58;101687.19;;;5.91;61.86
4586;BME280;2305;50.118;8.952;2023-04-04T08:25:27;101677.94;;;6.04;63.86
4586;BME280;2305;50.118;8.952;2023-04-04T08:27:55;101679.91;;;6.19;65.13
4586;BME280;2305;50.118;8.952;2023-04-04T08:30:24;101675.81;;;6.33;65.45
4586;BME280;2305;50.118;8.952;2023-04-04T08:32:52;101673.63;;;6.43;59.43
4586;BME280;2305;50.118;8.952;2023-04-04T08:35:21;101677.06;;;6.45;58.31
4586;BME280;2305;50.118;8.952;2023-04-04T08:37:51;101682.13;;;6.28;57.29
4586;BME280;2305;50.118;8.952;2023-04-04T08:40:21;101668.69;;;6.37;58.11
4586;BME280;2305;50.118;8.952;2023-04-04T08:42:50;101669.19;;;6.45;57.92
4586;BME280;2305;50.118;8.952;2023-04-04T08:45:20;101669.06;;;6.48;58.18
4586;BME280;2305;50.118;8.952;2023-04-04T08:47:55;101668.28;;;6.46;59.51
4586;BME280;2305;50.118;8.952;2023-04-04T08:50:25;101669.00;;;6.49;56.91
4586;BME280;2305;50.118;8.952;2023-04-04T08:52:55;101673.63;;;6.63;56.78
4586;BME280;2305;50.118;8.952;2023-04-04T08:55:26;101670.41;;;6.76;57.41
4586;BME280;2305;50.118;8.952;2023-04-04T08:57:57;101665.75;;;6.83;57.06
4586;BME280;2305;50.118;8.952;2023-04-04T09:00:25;101664.28;;;6.96;56.85
4586;BME280;2305;50.118;8.952;2023-04-04T09:02:55;101659.38;;;7.07;59.37
4586;BME280;2305;50.118;8.952;2023-04-04T09:05:28;101660.66;;;7.17;56.31
4586;BME280;2305;50.118;8.952;2023-04-04T09:07:57;101662.22;;;7.21;56.53
4586;BME280;2305;50.118;8.952;2023-04-04T09:10:27;101654.94;;;7.27;54.72
4586;BME280;2305;50.118;8.952;2023-04-04T09:12:56;101655.84;;;7.26;51.82
4586;BME280;2305;50.118;8.952;2023-04-04T09:15:45;101658.03;;;7.35;53.90
4586;BME280;2305;50.118;8.952;2023-04-04T09:18:15;101657.97;;;7.37;52.56
4586;BME280;2305;50.118;8.952;2023-04-04T09:20:44;101652.84;;;7.34;52.54
4586;BME280;2305;50.118;8.952;2023-04-04T09:23:14;101659.50;;;7.41;53.08
4586;BME280;2305;50.118;8.952;2023-04-04T09:25:46;101660.19;;;7.63;53.43
4586;BME280;2305;50.118;8.952;2023-04-04T09:28:18;101651.72;;;7.75;52.32
4586;BME280;2305;50.118;8.952;2023-04-04T09:30:48;101650.28;;;7.86;52.97
4586;BME280;2305;50.118;8.952;2023-04-04T09:33:17;101647.28;;;7.94;53.19
4586;BME280;2305;50.118;8.952;2023-04-04T09:35:49;101652.06;;;8.03;52.09
4586;BME280;2305;50.118;8.952;2023-04-04T09:38:20;101648.97;;;8.12;49.98
4586;BME280;2305;50.118;8.952;2023-04-04T09:40:50;101645.34;;;8.14;49.89
4586;BME280;2305;50.118;8.952;2023-04-04T09:43:18;101635.50;;;8.19;50.54
4586;BME280;2305;50.118;8.952;2023-04-04T09:45:48;101636.47;;;8.17;49.50
4586;BME280;2305;50.118;8.952;2023-04-04T09:48:24;101633.94;;;8.15;49.47
4586;BME280;2305;50.118;8.952;2023-04-04T09:50:56;101637.72;;;8.10;51.12
4586;BME280;2305;50.118;8.952;2023-04-04T09:53:24;101636.13;;;8.24;51.82
4586;BME280;2305;50.118;8.952;2023-04-04T09:55:55;101632.47;;;8.27;50.97
4586;BME280;2305;50.118;8.952;2023-04-04T09:58:26;101633.97;;;8.32;49.50
4586;BME280;2305;50.118;8.952;2023-04-04T10:00:57;101631.38;;;8.48;51.32
4586;BME280;2305;50.118;8.952;2023-04-04T10:03:29;101640.56;;;8.56;51.89
4586;BME280;2305;50.118;8.952;2023-04-04T10:05:59;101638.94;;;8.71;50.04
4586;BME280;2305;50.118;8.952;2023-04-04T10:08:30;101637.56;;;8.79;50.29
4586;BME280;2305;50.118;8.952;2023-04-04T10:11:01;101635.81;;;8.80;49.59
4586;BME280;2305;50.118;8.952;2023-04-04T10:13:33;101638.44;;;8.80;49.04
4586;BME280;2305;50.118;8.952;2023-04-04T10:16:04;101631.84;;;8.88;48.75
4586;BME280;2305;50.118;8.952;2023-04-04T10:18:33;101631.47;;;8.94;48.74
4586;BME280;2305;50.118;8.952;2023-04-04T10:21:03;101624.97;;;9.01;50.26
4586;BME280;2305;50.118;8.952;2023-04-04T10:23:44;101623.63;;;9.09;48.36
4586;BME280;2305;50.118;8.952;2023-04-04T10:26:14;101632.28;;;9.11;48.13
4586;BME280;2305;50.118;8.952;2023-04-04T10:28:42;101630.31;;;9.15;48.01
4586;BME280;2305;50.118;8.952;2023-04-04T10:31:16;101626.34;;;9.23;47.63
4586;BME280;2305;50.118;8.952;2023-04-04T10:33:55;101634.22;;;9.23;49.85
4586;BME280;2305;50.118;8.952;2023-04-04T10:36:29;101630.00;;;9.36;49.65
4586;BME280;2305;50.118;8.952;2023-04-04T10:39:07;101626.09;;;9.43;47.74
4586;BME280;2305;50.118;8.952;2023-04-04T10:41:41;101612.00;;;9.44;47.23
4586;BME280;2305;50.118;8.952;2023-04-04T10:44:19;101617.84;;;9.49;48.58
4586;BME280;2305;50.118;8.952;2023-04-04T10:46:52;101625.06;;;9.46;48.92
4586;BME280;2305;50.118;8.952;2023-04-04T10:49:21;101626.16;;;9.57;49.43
4586;BME280;2305;50.118;8.952;2023-04-04T10:51:52;101619.34;;;9.69;49.20
4586;BME280;2305;50.118;8.952;2023-04-04T10:54:24;101613.63;;;9.76;47.62
4586;BME280;2305;50.118;8.952;2023-04-04T10:56:57;101620.44;;;9.80;47.47
4586;BME280;2305;50.118;8.952;2023-04-04T10:59:27;101616.38;;;9.75;46.62
4586;BME280;2305;50.118;8.952;2023-04-04T11:01:57;101604.91;;;9.76;46.71
4586;BME280;2305;50.118;8.952;2023-04-04T11:04:32;101597.47;;;9.82;46.68
4586;BME280;2305;50.118;8.952;2023-04-04T11:07:09;101602.41;;;9.88;47.02
4586;BME280;2305;50.118;8.952;2023-04-04T11:09:51;101594.22;;;9.93;47.40
4586;BME280;2305;50.118;8.952;2023-04-04T11:12:28;101590.06;;;10.04;47.60
4586;BME280;2305;50.118;8.952;2023-04-04T11:15:06;101586.97;;;10.12;48.41
4586;BME280;2305;50.118;8.952;2023-04-04T11:17:52;101583.91;;;10.19;47.39
4586;BME280;2305;50.118;8.952;2023-04-04T11:20:22;101573.75;;;10.27;47.30
4586;BME280;2305;50.118;8.952;2023-04-04T11:23:01;101571.88;;;10.29;46.58
4586;BME280;2305;50.118;8.952;2023-04-04T11:25:31;101568.94;;;10.34;46.97
4586;BME280;2305;50.118;8.952;2023-04-04T11:28:06;101563.22;;;10.41;46.80
4586;BME280;2305;50.118;8.952;2023-04-04T11:30:40;101567.06;;;10.50;48.22
4586;BME280;2305;50.118;8.952;2023-04-04T11:33:25;101555.41;;;10.54;47.62
4586;BME280;2305;50.118;8.952;2023-04-04T11:35:58;101563.00;;;10.72;45.60
4586;BME280;2305;50.118;8.952;2023-04-04T11:38:34;101552.47;;;10.58;44.81
4586;BME280;2305;50.118;8.952;2023-04-04T11:41:02;101547.28;;;10.57;45.68
4586;BME280;2305;50.118;8.952;2023-04-04T11:43:33;101556.44;;;10.65;45.63
4586;BME280;2305;50.118;8.952;2023-04-04T11:46:05;101542.50;;;10.77;46.41
4586;BME280;2305;50.118;8.952;2023-04-04T11:48:40;101545.19;;;10.90;46.84
4586;BME280;2305;50.118;8.952;2023-04-04T11:51:09;101536.97;;;10.94;46.37
4586;BME280;2305;50.118;8.952;2023-04-04T11:53:41;101536.41;;;10.89;44.35
4586;BME280;2305;50.118;8.952;2023-04-04T11:56:14;101532.28;;;10.99;46.87
4586;BME280;2305;50.118;8.952;2023-04-04T11:58:47;101519.53;;;11.06;46.23
4586;BME280;2305;50.118;8.952;2023-04-04T12:01:24;101529.00;;;11.22;46.88
4586;BME280;2305;50.118;8.952;2023-04-04T12:03:52;101522.91;;;11.34;46.37
4586;BME280;2305;50.118;8.952;2023-04-04T12:06:20;101522.84;;;11.48;46.89
4586;BME280;2305;50.118;8.952;2023-04-04T12:08:49;101519.31;;;11.62;48.80
4586;BME280;2305;50.118;8.952;2023-04-04T12:11:17;101514.50;;;11.54;47.30
4586;BME280;2305;50.118;8.952;2023-04-04T12:13:49;101518.47;;;11.61;46.17
4586;BME280;2305;50.118;8.952;2023-04-04T12:16:18;101511.00;;;11.68;45.24
4586;BME280;2305;50.118;8.952;2023-04-04T12:18:46;101508.59;;;11.77;46.10
4586;BME280;2305;50.118;8.952;2023-04-04T12:21:14;101505.72;;;11.93;46.26
4586;BME280;2305;50.118;8.952;2023-04-04T12:23:45;101516.09;;;11.96;42.90
4586;BME280;2305;50.118;8.952;2023-04-04T12:26:16;101505.63;;;11.94;43.75
4586;BME280;2305;50.118;8.952;2023-04-04T12:28:49;101501.63;;;12.01;45.13
4586;BME280;2305;50.118;8.952;2023-04-04T12:31:21;101502.69;;;12.11;44.35
4586;BME280;2305;50.118;8.952;2023-04-04T12:33:49;101493.50;;;12.04;42.54
4586;BME280;2305;50.118;8.952;2023-04-04T12:36:19;101499.31;;;11.97;44.55
4586;BME280;2305;50.118;8.952;2023-04-04T12:38:56;101488.41;;;12.14;47.22
4586;BME280;2305;50.118;8.952;2023-04-04T12:41:24;101482.69;;;12.20;43.60
4586;BME280;2305;50.118;8.952;2023-04-04T12:44:00;101486.72;;;12.38;44.65
4586;BME280;2305;50.118;8.952;2023-04-04T12:46:35;101483.50;;;12.58;44.82
4586;BME280;2305;50.118;8.952;2023-04-04T12:49:05;101482.28;;;12.74;44.56
4586;BME280;2305;50.118;8.952;2023-04-04T12:51:36;101485.34;;;12.81;43.14
4586;BME280;2305;50.118;8.952;2023-04-04T12:54:05;101480.09;;;12.92;44.11
4586;BME280;2305;50.118;8.952;2023-04-04T12:56:34;101475.28;;;13.09;44.75
4586;BME280;2305;50.118;8.952;2023-04-04T12:59:06;101479.44;;;13.24;45.21
4586;BME280;2305;50.118;8.952;2023-04-04T13:01:39;101466.19;;;13.48;42.98
4586;BME280;2305;50.118;8.952;2023-04-04T13:04:10;101469.00;;;13.57;44.49
4586;BME280;2305;50.118;8.952;2023-04-04T13:06:44;101464.97;;;13.75;42.41
4586;BME280;2305;50.118;8.952;2023-04-04T13:09:17;101458.44;;;13.79;42.01
4586;BME280;2305;50.118;8.952;2023-04-04T13:11:59;101457.72;;;13.77;39.80
4586;BME280;2305;50.118;8.952;2023-04-04T13:14:56;101454.00;;;13.79;43.00
4586;BME280;2305;50.118;8.952;2023-04-04T13:17:24;101446.56;;;13.95;43.21
4586;BME280;2305;50.118;8.952;2023-04-04T13:19:52;101443.84;;;14.19;44.20
4586;BME280;2305;50.118;8.952;2023-04-04T13:22:21;101448.41;;;14.39;42.71
4586;BME280;2305;50.118;8.952;2023-04-04T13:24:48;101451.75;;;14.52;42.58
4586;BME280;2305;50.118;8.952;2023-04-04T13:27:20;101450.19;;;14.60;41.86
4586;BME280;2305;50.118;8.952;2023-04-04T13:29:49;101436.22;;;14.47;40.63
4586;BME280;2305;50.118;8.952;2023-04-04T13:32:23;101431.22;;;14.65;41.39
4586;BME280;2305;50.118;8.952;2023-04-04T13:34:51;101443.13;;;14.81;41.74